sensor_id;sensor_type;location;lat;lon;timestamp;temperature;humidity
25688;DHT22;17407;51.120;3.702;2023-04-03T00:01:28;5.50;99.90
25688;DHT22;17407;51.120;3.702;2023-04-03T00:03:54;5.50;99.90
25688;DHT22;17407;51.120;3.702;2023-04-03T00:06:21;5.50;99.90
25688;DHT22;17407;51.120;3.702;2023-04-03T00:08:48;5.50;99.90
25688;DHT22;17407;51.120;3.702;2023-04-03T00:11:13;5.50;99.90
25688;DHT22;17407;51.120;3.702;2023-04-03T00:13:39;5.40;99.90
25688;DHT22;17407;51.120;3.702;2023-04-03T00:16:07;5.40;99.90
25688;DHT22;17407;51.120;3.702;2023-04-03T00:18:33;5.30;99.90
25688;DHT22;17407;51.120;3.702;2023-04-03T00:20:59;5.40;99.90
25688;DHT22;17407;51.120;3.702;2023-04-03T00:23:25;5.30;99.90
25688;DHT22;17407;51.120;3.702;2023-04-03T00:25:51;5.30;99.90
25688;DHT22;17407;51.120;3.702;2023-04-03T00:28:17;5.30;99.90
25688;DHT22;17407;51.120;3.702;2023-04-03T00:30:43;5.30;99.90
25688;DHT22;17407;51.120;3.702;2023-04-03T00:33:12;5.30;99.90
25688;DHT22;17407;51.120;3.702;2023-04-03T00:35:38;5.30;99.90
25688;DHT22;17407;51.120;3.702;2023-04-03T00:38:03;5.30;99.90
25688;DHT22;17407;51.120;3.702;2023-04-03T00:40:34;5.30;99.90
25688;DHT22;17407;51.120;3.702;2023-04-03T00:43:00;5.30;99.90
25688;DHT22;17407;51.120;3.702;2023-04-03T00:45:38;5.30;99.90
25688;DHT22;17407;51.120;3.702;2023-04-03T00:48:07;5.20;99.90
25688;DHT22;17407;51.120;3.702;2023-04-03T00:50:39;5.20;99.90
25688;DHT22;17407;51.120;3.702;2023-04-03T00:53:06;5.10;99.90
25688;DHT22;17407;51.120;3.702;2023-04-03T00:55:34;5.10;99.90
25688;DHT22;17407;51.120;3.702;2023-04-03T00:58:01;5.20;99.90
25688;DHT22;17407;51.120;3.702;2023-04-03T01:00:28;5.20;99.90
25688;DHT22;17407;51.120;3.702;2023-04-03T01:02:53;5.10;99.90
25688;DHT22;17407;51.120;3.702;2023-04-03T01:05:20;5.10;99.90
25688;DHT22;17407;51.120;3.702;2023-04-03T01:07:47;5.20;99.90
25688;DHT22;17407;51.120;3.702;2023-04-03T01:10:15;5.10;99.90
25688;DHT22;17407;51.120;3.702;2023-04-03T01:12:45;5.10;99.90
25688;DHT22;17407;51.120;3.702;2023-04-03T01:15:20;5.20;99.90
25688;DHT22;17407;51.120;3.702;2023-04-03T01:17:53;5.20;99.90
25688;DHT22;17407;51.120;3.702;2023-04-03T01:22:59;5.20;99.90
25688;DHT22;17407;51.120;3.702;2023-04-03T01:25:27;5.10;99.90
25688;DHT22;17407;51.120;3.702;2023-04-03T01:27:53;5.00;99.90
25688;DHT22;17407;51.120;3.702;2023-04-03T01:30:21;5.00;99.90
25688;DHT22;17407;51.120;3.702;2023-04-03T01:32:49;5.00;99.90
25688;DHT22;17407;51.120;3.702;2023-04-03T01:35:15;4.90;99.90
25688;DHT22;17407;51.120;3.702;2023-04-03T01:37:40;4.90;99.90
25688;DHT22;17407;51.120;3.702;2023-04-03T01:40:06;4.90;99.90
25688;DHT22;17407;51.120;3.702;2023-04-03T01:42:32;4.90;99.90
25688;DHT22;17407;51.120;3.702;2023-04-03T01:44:58;4.90;99.90
25688;DHT22;17407;51.120;3.702;2023-04-03T01:47:23;4.90;99.90
25688;DHT22;17407;51.120;3.702;2023-04-03T01:49:49;4.90;99.90
25688;DHT22;17407;51.120;3.702;2023-04-03T01:52:15;5.10;99.90
25688;DHT22;17407;51.120;3.702;2023-04-03T01:59:52;4.90;99.90
25688;DHT22;17407;51.120;3.702;2023-04-03T02:02:17;4.90;99.90
25688;DHT22;17407;51.120;3.702;2023-04-03T02:04:45;5.00;99.90
25688;DHT22;17407;51.120;3.702;2023-04-03T02:07:11;5.00;99.90
25688;DHT22;17407;51.120;3.702;2023-04-03T02:09:37;5.00;99.90
25688;DHT22;17407;51.120;3.702;2023-04-03T02:12:03;5.00;99.90
25688;DHT22;17407;51.120;3.702;2023-04-03T02:14:28;5.00;99.90
25688;DHT22;17407;51.120;3.702;2023-04-03T02:16:55;5.00;99.90
25688;DHT22;17407;51.120;3.702;2023-04-03T02:19:20;4.70;99.90
25688;DHT22;17407;51.120;3.702;2023-04-03T02:21:46;4.80;99.90
25688;DHT22;17407;51.120;3.702;2023-04-03T02:24:12;4.90;99.90
25688;DHT22;17407;51.120;3.702;2023-04-03T02:26:38;4.80;99.90
25688;DHT22;17407;51.120;3.702;2023-04-03T02:29:04;4.80;99.90
25688;DHT22;17407;51.120;3.702;2023-04-03T02:31:30;5.00;99.90
25688;DHT22;17407;51.120;3.702;2023-04-03T02:33:56;4.90;99.90
25688;DHT22;17407;51.120;3.702;2023-04-03T02:36:22;4.90;99.90
25688;DHT22;17407;51.120;3.702;2023-04-03T02:38:48;4.80;99.90
25688;DHT22;17407;51.120;3.702;2023-04-03T02:41:14;5.00;99.90
25688;DHT22;17407;51.120;3.702;2023-04-03T02:43:40;4.80;99.90
25688;DHT22;17407;51.120;3.702;2023-04-03T02:46:06;4.70;99.90
25688;DHT22;17407;51.120;3.702;2023-04-03T02:48:33;4.80;99.90
25688;DHT22;17407;51.120;3.702;2023-04-03T02:50:59;4.70;99.90
25688;DHT22;17407;51.120;3.702;2023-04-03T02:53:25;4.70;99.90
25688;DHT22;17407;51.120;3.702;2023-04-03T02:55:51;4.80;99.90
25688;DHT22;17407;51.120;3.702;2023-04-03T02:58:17;4.70;99.90
25688;DHT22;17407;51.120;3.702;2023-04-03T03:00:43;4.70;99.90
25688;DHT22;17407;51.120;3.702;2023-04-03T03:03:09;4.80;99.90
25688;DHT22;17407;51.120;3.702;2023-04-03T03:05:35;4.70;99.90
25688;DHT22;17407;51.120;3.702;2023-04-03T03:08:01;4.70;99.90
25688;DHT22;17407;51.120;3.702;2023-04-03T03:10:27;4.80;99.90
25688;DHT22;17407;51.120;3.702;2023-04-03T03:12:53;4.70;99.90
25688;DHT22;17407;51.120;3.702;2023-04-03T03:15:19;4.70;99.90
25688;DHT22;17407;51.120;3.702;2023-04-03T03:17:45;4.50;99.90
25688;DHT22;17407;51.120;3.702;2023-04-03T03:20:12;4.70;99.90
25688;DHT22;17407;51.120;3.702;2023-04-03T03:22:40;4.60;99.90
25688;DHT22;17407;51.120;3.702;2023-04-03T03:25:09;4.70;99.90
25688;DHT22;17407;51.120;3.702;2023-04-03T03:27:35;4.70;99.90
25688;DHT22;17407;51.120;3.702;2023-04-03T03:30:01;4.70;99.90
25688;DHT22;17407;51.120;3.702;2023-04-03T03:32:27;4.90;99.90
25688;DHT22;17407;51.120;3.702;2023-04-03T03:34:53;4.90;99.90
25688;DHT22;17407;51.120;3.702;2023-04-03T03:37:18;4.90;99.90
25688;DHT22;17407;51.120;3.702;2023-04-03T03:39:45;4.80;99.90
25688;DHT22;17407;51.120;3.702;2023-04-03T03:42:11;4.60;99.90
25688;DHT22;17407;51.120;3.702;2023-04-03T03:44:36;4.50;99.90
25688;DHT22;17407;51.120;3.702;2023-04-03T03:47:02;4.60;99.90
25688;DHT22;17407;51.120;3.702;2023-04-03T03:49:28;4.70;99.90
25688;DHT22;17407;51.120;3.702;2023-04-03T03:51:54;4.80;99.90
25688;DHT22;17407;51.120;3.702;2023-04-03T03:54:20;4.60;99.90
25688;DHT22;17407;51.120;3.702;2023-04-03T03:56:46;4.70;99.90
25688;DHT22;17407;51.120;3.702;2023-04-03T03:59:12;4.60;99.90
25688;DHT22;17407;51.120;3.702;2023-04-03T04:01:38;4.60;99.90
25688;DHT22;17407;51.120;3.702;2023-04-03T04:04:05;4.80;99.90
25688;DHT22;17407;51.120;3.702;2023-04-03T04:06:33;4.60;99.90
25688;DHT22;17407;51.120;3.702;2023-04-03T04:08:59;4.70;99.90
25688;DHT22;17407;51.120;3.702;2023-04-03T04:11:25;4.60;99.90
25688;DHT22;17407;51.120;3.702;2023-04-03T04:13:52;4.40;99.90
25688;DHT22;17407;51.120;3.702;2023-04-03T04:16:18;4.50;99.90
25688;DHT22;17407;51.120;3.702;2023-04-03T04:18:47;4.60;99.90
25688;DHT22;17407;51.120;3.702;2023-04-03T04:21:13;4.30;99.90
25688;DHT22;17407;51.120;3.702;2023-04-03T04:23:38;4.70;99.90
25688;DHT22;17407;51.120;3.702;2023-04-03T04:26:04;4.40;99.90
25688;DHT22;17407;51.120;3.702;2023-04-03T04:28:30;4.40;99.90
25688;DHT22;17407;51.120;3.702;2023-04-03T04:30:56;4.50;99.90
25688;DHT22;17407;51.120;3.702;2023-04-03T04:33:22;4.40;99.90
25688;DHT22;17407;51.120;3.702;2023-04-03T04:35:48;4.60;99.90
25688;DHT22;17407;51.120;3.702;2023-04-03T04:38:14;4.30;99.90
25688;DHT22;17407;51.120;3.702;2023-04-03T04:40:40;4.40;99.90
25688;DHT22;17407;51.120;3.702;2023-04-03T04:43:06;4.30;99.90
25688;DHT22;17407;51.120;3.702;2023-04-03T04:45:32;4.20;99.90
25688;DHT22;17407;51.120;3.702;2023-04-03T04:47:58;4.30;99.90
25688;DHT22;17407;51.120;3.702;2023-04-03T04:50:24;4.30;99.90
25688;DHT22;17407;51.120;3.702;2023-04-03T04:52:50;4.40;99.90
25688;DHT22;17407;51.120;3.702;2023-04-03T04:55:16;4.40;99.90
25688;DHT22;17407;51.120;3.702;2023-04-03T04:57:42;4.40;99.90
25688;DHT22;17407;51.120;3.702;2023-04-03T05:00:08;4.30;99.90
25688;DHT22;17407;51.120;3.702;2023-04-03T05:02:33;4.20;99.90
25688;DHT22;17407;51.120;3.702;2023-04-03T05:04:59;4.20;99.90
25688;DHT22;17407;51.120;3.702;2023-04-03T05:07:25;4.20;99.90
25688;DHT22;17407;51.120;3.702;2023-04-03T05:09:50;4.10;99.90
25688;DHT22;17407;51.120;3.702;2023-04-03T05:12:16;4.10;99.90
25688;DHT22;17407;51.120;3.702;2023-04-03T05:14:42;4.00;99.90
25688;DHT22;17407;51.120;3.702;2023-04-03T05:17:08;4.00;99.90
25688;DHT22;17407;51.120;3.702;2023-04-03T05:19:33;4.00;99.90
25688;DHT22;17407;51.120;3.702;2023-04-03T05:21:59;4.10;99.90
25688;DHT22;17407;51.120;3.702;2023-04-03T05:24:25;4.10;99.90
25688;DHT22;17407;51.120;3.702;2023-04-03T05:26:51;4.00;99.90
25688;DHT22;17407;51.120;3.702;2023-04-03T05:29:17;4.00;99.90
25688;DHT22;17407;51.120;3.702;2023-04-03T05:31:43;4.10;99.90
25688;DHT22;17407;51.120;3.702;2023-04-03T05:34:09;4.10;99.90
25688;DHT22;17407;51.120;3.702;2023-04-03T05:36:35;4.10;99.90
25688;DHT22;17407;51.120;3.702;2023-04-03T05:39:00;4.10;99.90
25688;DHT22;17407;51.120;3.702;2023-04-03T05:41:26;4.00;99.90
25688;DHT22;17407;51.120;3.702;2023-04-03T05:43:52;4.10;99.90
25688;DHT22;17407;51.120;3.702;2023-04-03T05:46:19;4.00;99.90
25688;DHT22;17407;51.120;3.702;2023-04-03T05:48:45;4.00;99.90
25688;DHT22;17407;51.120;3.702;2023-04-03T05:51:17;4.00;99.90
25688;DHT22;17407;51.120;3.702;2023-04-03T05:53:44;4.00;99.90
25688;DHT22;17407;51.120;3.702;2023-04-03T05:56:10;3.90;99.90
25688;DHT22;17407;51.120;3.702;2023-04-03T05:58:36;3.90;99.90
25688;DHT22;17407;51.120;3.702;2023-04-03T06:01:02;3.80;99.90
25688;DHT22;17407;51.120;3.702;2023-04-03T06:03:27;3.90;99.90
25688;DHT22;17407;51.120;3.702;2023-04-03T06:05:53;3.80;99.90
25688;DHT22;17407;51.120;3.702;2023-04-03T06:08:19;3.80;99.90
25688;DHT22;17407;51.120;3.702;2023-04-03T06:10:45;3.80;99.90
25688;DHT22;17407;51.120;3.702;2023-04-03T06:13:11;3.90;99.90
25688;DHT22;17407;51.120;3.702;2023-04-03T06:15:36;3.90;99.90
25688;DHT22;17407;51.120;3.702;2023-04-03T06:18:03;3.90;99.90
25688;DHT22;17407;51.120;3.702;2023-04-03T06:20:29;3.90;99.90
25688;DHT22;17407;51.120;3.702;2023-04-03T06:22:54;3.90;99.90
25688;DHT22;17407;51.120;3.702;2023-04-03T06:25:20;4.00;99.90
25688;DHT22;17407;51.120;3.702;2023-04-03T06:27:46;4.00;99.90
25688;DHT22;17407;51.120;3.702;2023-04-03T06:30:12;4.00;99.90
25688;DHT22;17407;51.120;3.702;2023-04-03T06:32:38;4.00;99.90
25688;DHT22;17407;51.120;3.702;2023-04-03T07:59:37;6.50;99.90
25688;DHT22;17407;51.120;3.702;2023-04-03T08:23:05;8.30;99.90
25688;DHT22;17407;51.120;3.702;2023-04-03T08:25:31;8.50;99.90
25688;DHT22;17407;51.120;3.702;2023-04-03T09:01:40;10.30;99.90
25688;DHT22;17407;51.120;3.702;2023-04-03T09:20:53;11.00;99.90
25688;DHT22;17407;51.120;3.702;2023-04-03T09:23:42;11.10;99.90
25688;DHT22;17407;51.120;3.702;2023-04-03T09:26:16;11.40;99.90
25688;DHT22;17407;51.120;3.702;2023-04-03T09:28:45;11.40;99.90
25688;DHT22;17407;51.120;3.702;2023-04-03T09:31:38;11.40;99.90
25688;DHT22;17407;51.120;3.702;2023-04-03T09:34:26;11.60;99.90
25688;DHT22;17407;51.120;3.702;2023-04-03T09:36:55;11.50;99.90
25688;DHT22;17407;51.120;3.702;2023-04-03T09:39:24;11.50;99.90
25688;DHT22;17407;51.120;3.702;2023-04-03T09:42:21;11.50;99.90
25688;DHT22;17407;51.120;3.702;2023-04-03T09:45:21;11.60;99.90
25688;DHT22;17407;51.120;3.702;2023-04-03T09:47:48;11.70;99.90
25688;DHT22;17407;51.120;3.702;2023-04-03T09:52:45;11.90;99.90
25688;DHT22;17407;51.120;3.702;2023-04-03T09:57:42;12.20;99.90
25688;DHT22;17407;51.120;3.702;2023-04-03T10:00:30;12.30;99.90
25688;DHT22;17407;51.120;3.702;2023-04-03T10:02:58;12.20;99.90
25688;DHT22;17407;51.120;3.702;2023-04-03T10:05:41;12.00;99.90
25688;DHT22;17407;51.120;3.702;2023-04-03T10:10:40;12.10;99.90
25688;DHT22;17407;51.120;3.702;2023-04-03T10:13:20;12.00;99.90
25688;DHT22;17407;51.120;3.702;2023-04-03T10:21:17;12.40;99.90
25688;DHT22;17407;51.120;3.702;2023-04-03T10:23:53;12.50;99.90
25688;DHT22;17407;51.120;3.702;2023-04-03T10:26:29;12.50;99.90
25688;DHT22;17407;51.120;3.702;2023-04-03T10:34:40;13.00;99.90
25688;DHT22;17407;51.120;3.702;2023-04-03T10:37:47;13.20;99.90
25688;DHT22;17407;51.120;3.702;2023-04-03T10:40:41;13.30;99.90
25688;DHT22;17407;51.120;3.702;2023-04-03T10:45:57;13.20;99.70
25688;DHT22;17407;51.120;3.702;2023-04-03T10:48:44;13.30;99.40
25688;DHT22;17407;51.120;3.702;2023-04-03T10:51:40;13.30;99.90
25688;DHT22;17407;51.120;3.702;2023-04-03T10:54:24;13.40;99.40
25688;DHT22;17407;51.120;3.702;2023-04-03T11:02:21;13.70;96.30
25688;DHT22;17407;51.120;3.702;2023-04-03T11:04:51;13.70;96.60
25688;DHT22;17407;51.120;3.702;2023-04-03T11:07:22;13.90;97.10
25688;DHT22;17407;51.120;3.702;2023-04-03T11:10:00;13.80;98.00
25688;DHT22;17407;51.120;3.702;2023-04-03T11:12:40;13.90;98.00
25688;DHT22;17407;51.120;3.702;2023-04-03T11:15:17;14.00;94.80
25688;DHT22;17407;51.120;3.702;2023-04-03T11:18:15;14.10;93.50
25688;DHT22;17407;51.120;3.702;2023-04-03T11:20:44;14.00;95.10
25688;DHT22;17407;51.120;3.702;2023-04-03T11:23:34;14.00;95.20
25688;DHT22;17407;51.120;3.702;2023-04-03T11:26:15;14.00;91.80
25688;DHT22;17407;51.120;3.702;2023-04-03T11:28:42;14.10;93.40
25688;DHT22;17407;51.120;3.702;2023-04-03T11:37:00;14.30;92.80
25688;DHT22;17407;51.120;3.702;2023-04-03T11:39:31;14.50;91.40
25688;DHT22;17407;51.120;3.702;2023-04-03T11:42:22;14.60;91.70
25688;DHT22;17407;51.120;3.702;2023-04-03T11:44:49;14.80;91.40
25688;DHT22;17407;51.120;3.702;2023-04-03T11:47:45;14.90;91.00
25688;DHT22;17407;51.120;3.702;2023-04-03T11:50:43;15.10;87.80
25688;DHT22;17407;51.120;3.702;2023-04-03T11:55:51;15.30;90.40
25688;DHT22;17407;51.120;3.702;2023-04-03T11:58:23;15.30;89.80
25688;DHT22;17407;51.120;3.702;2023-04-03T12:00:51;15.40;85.80
25688;DHT22;17407;51.120;3.702;2023-04-03T12:24:52;16.00;77.00
25688;DHT22;17407;51.120;3.702;2023-04-03T12:27:25;16.10;75.60
25688;DHT22;17407;51.120;3.702;2023-04-03T12:40:36;16.30;69.60
25688;DHT22;17407;51.120;3.702;2023-04-03T12:45:47;16.50;68.50
25688;DHT22;17407;51.120;3.702;2023-04-03T12:48:20;16.50;66.40
25688;DHT22;17407;51.120;3.702;2023-04-03T12:50:49;16.60;66.70
25688;DHT22;17407;51.120;3.702;2023-04-03T12:53:21;16.60;65.90
25688;DHT22;17407;51.120;3.702;2023-04-03T12:55:53;16.70;64.20
25688;DHT22;17407;51.120;3.702;2023-04-03T12:58:27;16.70;65.20
25688;DHT22;17407;51.120;3.702;2023-04-03T13:01:22;16.70;64.40
25688;DHT22;17407;51.120;3.702;2023-04-03T13:03:52;16.60;60.70
25688;DHT22;17407;51.120;3.702;2023-04-03T13:06:32;16.60;64.00
25688;DHT22;17407;51.120;3.702;2023-04-03T13:09:01;16.60;63.60
25688;DHT22;17407;51.120;3.702;2023-04-03T13:11:38;16.60;62.30
25688;DHT22;17407;51.120;3.702;2023-04-03T13:14:16;16.70;61.30
25688;DHT22;17407;51.120;3.702;2023-04-03T13:16:42;16.60;60.60
25688;DHT22;17407;51.120;3.702;2023-04-03T13:19:17;16.60;59.10
25688;DHT22;17407;51.120;3.702;2023-04-03T13:21:44;16.60;59.70
25688;DHT22;17407;51.120;3.702;2023-04-03T13:24:11;16.60;60.10
25688;DHT22;17407;51.120;3.702;2023-04-03T13:26:37;16.60;58.70
25688;DHT22;17407;51.120;3.702;2023-04-03T13:29:06;16.60;61.30
25688;DHT22;17407;51.120;3.702;2023-04-03T13:31:37;16.60;61.30
25688;DHT22;17407;51.120;3.702;2023-04-03T13:36:39;16.60;61.80
25688;DHT22;17407;51.120;3.702;2023-04-03T13:39:22;16.60;58.20
25688;DHT22;17407;51.120;3.702;2023-04-03T13:41:53;16.60;59.10
25688;DHT22;17407;51.120;3.702;2023-04-03T13:47:16;16.60;58.10
25688;DHT22;17407;51.120;3.702;2023-04-03T13:49:45;16.60;57.60
25688;DHT22;17407;51.120;3.702;2023-04-03T13:52:32;16.70;58.50
25688;DHT22;17407;51.120;3.702;2023-04-03T13:55:25;16.70;58.20
25688;DHT22;17407;51.120;3.702;2023-04-03T13:57:52;16.60;58.50
25688;DHT22;17407;51.120;3.702;2023-04-03T14:02:55;16.70;56.40
25688;DHT22;17407;51.120;3.702;2023-04-03T14:05:22;16.80;55.00
25688;DHT22;17407;51.120;3.702;2023-04-03T14:07:51;16.80;56.20
25688;DHT22;17407;51.120;3.702;2023-04-03T14:10:17;16.70;57.40
25688;DHT22;17407;51.120;3.702;2023-04-03T14:12:43;16.70;56.70
25688;DHT22;17407;51.120;3.702;2023-04-03T14:15:27;16.80;55.70
25688;DHT22;17407;51.120;3.702;2023-04-03T14:17:53;16.90;57.30
25688;DHT22;17407;51.120;3.702;2023-04-03T14:20:23;16.80;62.00
25688;DHT22;17407;51.120;3.702;2023-04-03T14:22:50;16.80;55.20
25688;DHT22;17407;51.120;3.702;2023-04-03T14:25:17;17.00;56.80
25688;DHT22;17407;51.120;3.702;2023-04-03T14:27:46;17.00;56.80
25688;DHT22;17407;51.120;3.702;2023-04-03T14:30:27;17.00;54.10
25688;DHT22;17407;51.120;3.702;2023-04-03T14:32:54;17.00;54.80
25688;DHT22;17407;51.120;3.702;2023-04-03T14:35:20;16.90;54.90
25688;DHT22;17407;51.120;3.702;2023-04-03T14:37:47;16.90;56.00
25688;DHT22;17407;51.120;3.702;2023-04-03T14:40:16;17.00;54.00
25688;DHT22;17407;51.120;3.702;2023-04-03T14:42:42;16.90;55.50
25688;DHT22;17407;51.120;3.702;2023-04-03T14:45:10;16.90;53.20
25688;DHT22;17407;51.120;3.702;2023-04-03T14:47:42;16.80;52.80
25688;DHT22;17407;51.120;3.702;2023-04-03T14:50:14;16.80;53.30
25688;DHT22;17407;51.120;3.702;2023-04-03T14:52:40;16.80;53.40
25688;DHT22;17407;51.120;3.702;2023-04-03T14:55:06;16.70;52.10
25688;DHT22;17407;51.120;3.702;2023-04-03T14:57:33;16.70;50.20
25688;DHT22;17407;51.120;3.702;2023-04-03T14:59:59;16.70;50.60
25688;DHT22;17407;51.120;3.702;2023-04-03T15:02:32;16.40;50.30
25688;DHT22;17407;51.120;3.702;2023-04-03T15:04:59;16.30;50.60
25688;DHT22;17407;51.120;3.702;2023-04-03T15:07:27;16.30;50.10
25688;DHT22;17407;51.120;3.702;2023-04-03T15:09:54;16.30;50.00
25688;DHT22;17407;51.120;3.702;2023-04-03T15:12:22;16.40;50.40
25688;DHT22;17407;51.120;3.702;2023-04-03T15:14:48;16.30;51.90
25688;DHT22;17407;51.120;3.702;2023-04-03T15:17:19;16.20;53.90
25688;DHT22;17407;51.120;3.702;2023-04-03T15:19:46;16.40;53.00
25688;DHT22;17407;51.120;3.702;2023-04-03T15:22:18;16.50;52.20
25688;DHT22;17407;51.120;3.702;2023-04-03T15:24:44;16.30;51.60
25688;DHT22;17407;51.120;3.702;2023-04-03T15:27:11;16.30;50.20
25688;DHT22;17407;51.120;3.702;2023-04-03T15:29:38;16.20;51.20
25688;DHT22;17407;51.120;3.702;2023-04-03T15:32:04;16.20;52.80
25688;DHT22;17407;51.120;3.702;2023-04-03T15:34:30;16.10;50.60
25688;DHT22;17407;51.120;3.702;2023-04-03T15:36:56;16.10;52.20
25688;DHT22;17407;51.120;3.702;2023-04-03T15:39:22;16.10;53.90
25688;DHT22;17407;51.120;3.702;2023-04-03T15:41:48;16.00;52.10
25688;DHT22;17407;51.120;3.702;2023-04-03T15:44:14;15.90;52.90
25688;DHT22;17407;51.120;3.702;2023-04-03T15:46:43;15.90;52.40
25688;DHT22;17407;51.120;3.702;2023-04-03T15:49:09;16.10;51.20
25688;DHT22;17407;51.120;3.702;2023-04-03T15:51:35;16.10;51.90
25688;DHT22;17407;51.120;3.702;2023-04-03T15:54:01;16.10;52.20
25688;DHT22;17407;51.120;3.702;2023-04-03T15:56:27;16.20;51.60
25688;DHT22;17407;51.120;3.702;2023-04-03T15:58:52;16.10;52.20
25688;DHT22;17407;51.120;3.702;2023-04-03T16:01:18;16.10;52.70
25688;DHT22;17407;51.120;3.702;2023-04-03T16:03:44;16.10;50.70
25688;DHT22;17407;51.120;3.702;2023-04-03T16:06:12;16.00;51.80
25688;DHT22;17407;51.120;3.702;2023-04-03T16:08:38;16.00;50.70
25688;DHT22;17407;51.120;3.702;2023-04-03T16:11:04;16.00;50.10
25688;DHT22;17407;51.120;3.702;2023-04-03T16:13:29;15.90;51.10
25688;DHT22;17407;51.120;3.702;2023-04-03T16:15:56;15.80;51.20
25688;DHT22;17407;51.120;3.702;2023-04-03T16:18:21;15.60;51.20
25688;DHT22;17407;51.120;3.702;2023-04-03T16:20:47;15.50;52.30
25688;DHT22;17407;51.120;3.702;2023-04-03T16:23:13;15.50;53.50
25688;DHT22;17407;51.120;3.702;2023-04-03T16:25:39;15.60;54.30
25688;DHT22;17407;51.120;3.702;2023-04-03T16:28:05;15.60;51.80
25688;DHT22;17407;51.120;3.702;2023-04-03T16:30:33;15.50;53.00
25688;DHT22;17407;51.120;3.702;2023-04-03T16:32:59;15.50;54.30
25688;DHT22;17407;51.120;3.702;2023-04-03T16:35:24;15.50;53.70
25688;DHT22;17407;51.120;3.702;2023-04-03T16:37:50;15.40;53.70
25688;DHT22;17407;51.120;3.702;2023-04-03T16:40:16;15.30;53.00
25688;DHT22;17407;51.120;3.702;2023-04-03T16:42:41;15.40;51.80
25688;DHT22;17407;51.120;3.702;2023-04-03T16:45:07;15.40;52.70
25688;DHT22;17407;51.120;3.702;2023-04-03T16:47:34;15.40;51.50
25688;DHT22;17407;51.120;3.702;2023-04-03T16:49:59;15.30;51.80
25688;DHT22;17407;51.120;3.702;2023-04-03T16:52:25;15.10;51.30
25688;DHT22;17407;51.120;3.702;2023-04-03T16:54:51;15.00;51.70
25688;DHT22;17407;51.120;3.702;2023-04-03T16:57:21;15.00;52.60
25688;DHT22;17407;51.120;3.702;2023-04-03T16:59:47;15.00;51.70
25688;DHT22;17407;51.120;3.702;2023-04-03T17:02:13;14.90;52.50
25688;DHT22;17407;51.120;3.702;2023-04-03T17:04:38;14.70;54.80
25688;DHT22;17407;51.120;3.702;2023-04-03T17:07:04;14.70;53.30
25688;DHT22;17407;51.120;3.702;2023-04-03T17:09:32;14.60;54.00
25688;DHT22;17407;51.120;3.702;2023-04-03T17:11:58;14.60;53.70
25688;DHT22;17407;51.120;3.702;2023-04-03T17:14:24;14.50;53.40
25688;DHT22;17407;51.120;3.702;2023-04-03T17:16:50;14.60;52.50
25688;DHT22;17407;51.120;3.702;2023-04-03T17:19:16;14.50;52.00
25688;DHT22;17407;51.120;3.702;2023-04-03T17:21:43;14.30;53.30
25688;DHT22;17407;51.120;3.702;2023-04-03T17:24:10;14.10;55.60
25688;DHT22;17407;51.120;3.702;2023-04-03T17:26:39;14.10;55.10
25688;DHT22;17407;51.120;3.702;2023-04-03T17:29:05;14.00;54.60
25688;DHT22;17407;51.120;3.702;2023-04-03T17:31:31;14.00;55.50
25688;DHT22;17407;51.120;3.702;2023-04-03T17:33:57;13.80;55.30
25688;DHT22;17407;51.120;3.702;2023-04-03T17:36:27;13.70;55.30
25688;DHT22;17407;51.120;3.702;2023-04-03T17:38:53;13.50;56.30
25688;DHT22;17407;51.120;3.702;2023-04-03T17:41:20;13.30;57.00
25688;DHT22;17407;51.120;3.702;2023-04-03T17:43:46;13.30;57.40
25688;DHT22;17407;51.120;3.702;2023-04-03T17:46:12;13.10;59.70
25688;DHT22;17407;51.120;3.702;2023-04-03T17:48:39;13.00;59.00
25688;DHT22;17407;51.120;3.702;2023-04-03T17:51:11;13.10;58.80
25688;DHT22;17407;51.120;3.702;2023-04-03T17:53:37;13.00;59.50
25688;DHT22;17407;51.120;3.702;2023-04-03T17:56:29;12.90;60.90
25688;DHT22;17407;51.120;3.702;2023-04-03T17:58:56;12.90;61.30
25688;DHT22;17407;51.120;3.702;2023-04-03T18:01:29;12.80;62.50
25688;DHT22;17407;51.120;3.702;2023-04-03T18:03:58;12.70;63.40
25688;DHT22;17407;51.120;3.702;2023-04-03T18:06:32;12.70;63.90
25688;DHT22;17407;51.120;3.702;2023-04-03T18:09:02;12.60;64.30
25688;DHT22;17407;51.120;3.702;2023-04-03T18:11:29;12.50;64.90
25688;DHT22;17407;51.120;3.702;2023-04-03T18:13:58;12.50;65.70
25688;DHT22;17407;51.120;3.702;2023-04-03T18:16:24;12.40;65.00
25688;DHT22;17407;51.120;3.702;2023-04-03T18:18:50;12.40;65.90
25688;DHT22;17407;51.120;3.702;2023-04-03T18:21:16;12.30;65.90
25688;DHT22;17407;51.120;3.702;2023-04-03T18:23:47;12.30;65.60
25688;DHT22;17407;51.120;3.702;2023-04-03T18:26:14;12.30;66.20
25688;DHT22;17407;51.120;3.702;2023-04-03T18:28:42;12.10;65.70
25688;DHT22;17407;51.120;3.702;2023-04-03T18:31:12;12.00;66.60
25688;DHT22;17407;51.120;3.702;2023-04-03T18:33:40;11.80;67.50
25688;DHT22;17407;51.120;3.702;2023-04-03T18:36:06;11.60;68.40
25688;DHT22;17407;51.120;3.702;2023-04-03T18:38:32;11.60;68.20
25688;DHT22;17407;51.120;3.702;2023-04-03T18:40:59;11.60;69.10
25688;DHT22;17407;51.120;3.702;2023-04-03T18:43:26;11.40;69.20
25688;DHT22;17407;51.120;3.702;2023-04-03T18:45:53;11.30;70.20
25688;DHT22;17407;51.120;3.702;2023-04-03T18:48:19;11.30;70.50
25688;DHT22;17407;51.120;3.702;2023-04-03T18:50:46;11.20;70.90
25688;DHT22;17407;51.120;3.702;2023-04-03T18:53:12;11.20;71.50
25688;DHT22;17407;51.120;3.702;2023-04-03T18:55:38;11.10;71.30
25688;DHT22;17407;51.120;3.702;2023-04-03T18:58:03;11.10;71.70
25688;DHT22;17407;51.120;3.702;2023-04-03T19:00:29;11.10;72.30
25688;DHT22;17407;51.120;3.702;2023-04-03T19:02:55;11.00;72.30
25688;DHT22;17407;51.120;3.702;2023-04-03T19:05:21;11.00;72.80
25688;DHT22;17407;51.120;3.702;2023-04-03T19:07:48;10.90;73.70
25688;DHT22;17407;51.120;3.702;2023-04-03T19:10:15;10.80;74.20
25688;DHT22;17407;51.120;3.702;2023-04-03T19:12:49;10.80;74.10
25688;DHT22;17407;51.120;3.702;2023-04-03T19:15:17;10.70;73.90
25688;DHT22;17407;51.120;3.702;2023-04-03T19:17:43;10.70;75.20
25688;DHT22;17407;51.120;3.702;2023-04-03T19:20:11;10.60;75.30
25688;DHT22;17407;51.120;3.702;2023-04-03T19:22:38;10.50;76.20
25688;DHT22;17407;51.120;3.702;2023-04-03T19:25:05;10.50;76.60
25688;DHT22;17407;51.120;3.702;2023-04-03T19:27:31;10.40;77.40
25688;DHT22;17407;51.120;3.702;2023-04-03T19:29:59;10.40;77.80
25688;DHT22;17407;51.120;3.702;2023-04-03T19:32:25;10.40;77.50
25688;DHT22;17407;51.120;3.702;2023-04-03T19:34:51;10.40;77.80
25688;DHT22;17407;51.120;3.702;2023-04-03T19:37:17;10.30;78.60
25688;DHT22;17407;51.120;3.702;2023-04-03T19:39:44;10.30;79.10
25688;DHT22;17407;51.120;3.702;2023-04-03T19:42:11;10.20;79.40
25688;DHT22;17407;51.120;3.702;2023-04-03T19:44:37;10.20;79.80
25688;DHT22;17407;51.120;3.702;2023-04-03T19:47:03;10.10;80.80
25688;DHT22;17407;51.120;3.702;2023-04-03T19:49:29;10.00;80.90